NCAR-RAP Real-Time Weather Data

Output produced by METARs form (12 August 2020  18:53 UTC)
found at http://weather.rap.ucar.edu/surface/
 
KSEA 121753Z 17003KT 10SM BKN024 OVC060 14/08 A3007 RMK AO2 SLP187 T01440083 10144 20128 53013
KSEA 121653Z 22005KT 10SM BKN021 OVC060 14/09 A3005 RMK AO2 SLP181 T01440089
KSEA 121553Z 21004KT 10SM BKN029 BKN060 BKN250 14/08 A3004 RMK AO2 SLP177 T01440083
KSEA 121534Z 19004KT 10SM BKN029 BKN060 BKN250 14/08 A3004 RMK AO2 T01390083
KSEA 121453Z 17003KT 10SM SCT060 BKN250 13/08 A3003 RMK AO2 SLP175 T01330083 53010
KSEA 121353Z 14007KT 10SM BKN060 BKN250 13/08 A3002 RMK AO2 SLP172 T01330078
KSEA 121253Z 16007KT 10SM BKN050 OVC250 13/08 A3001 RMK AO2 SLP167 T01280078
KSEA 121153Z 15008KT 10SM FEW031 OVC055 13/08 A3000 RMK AO2 SLP163 T01330078 10156 20128 53008
KSEA 121053Z 14007KT 10SM FEW031 SCT060 BKN220 13/07 A2999 RMK AO2 SLP160 T01280072
KSEA 120953Z 16006KT 10SM BKN031 OVC055 14/07 A2998 RMK AO2 SLP157 T01390072
KSEA 120853Z 17005KT 10SM SCT031 BKN055 13/08 A2998 RMK AO2 SLP155 T01330078 51011
KSEA 120753Z 23005KT 10SM FEW038 SCT060 BKN100 14/08 A2996 RMK AO2 SLP152 T01440078 402440139
KSEA 120653Z 23004KT 10SM BKN060 15/08 A2996 RMK AO2 SLP150 T01500078
KSEA 120553Z 25005KT 10SM BKN060 16/09 A2994 RMK AO2 SLP145 T01560089 10244 20156 53017
KSEA 120453Z 22008KT 10SM SCT060 BKN200 17/07 A2993 RMK AO2 SLP139 T01670072
KSEA 120353Z 23009KT 10SM FEW040 SCT085 BKN230 17/08 A2991 RMK AO2 SLP133 VIRGA N T01720078
KSEA 120253Z 20008KT 10SM FEW040 BKN080 BKN250 19/08 A2989 RMK AO2 SLP128 T01890083 57005
KSEA 120153Z 25010KT 10SM FEW040 BKN095 BKN250 20/09 A2990 RMK AO2 SLP131 T02000089
KSEA 120053Z 24007KT 10SM FEW040 SCT090 BKN250 22/10 A2990 RMK AO2 SLP130 T02170100
KSEA 112353Z 25009KT 10SM FEW040 BKN250 24/09 A2991 RMK AO2 SLP133 T02440089 10244 20161 58013
KSEA 112253Z 21008KT 10SM FEW040 BKN250 23/09 A2992 RMK AO2 SLP137 T02330094
KSEA 112153Z 25009KT 10SM FEW040 BKN250 22/11 A2995 RMK AO2 SLP145 T02220106
KSEA 112053Z 21009KT 10SM FEW030 FEW250 22/11 A2995 RMK AO2 SLP146 T02170111 58008
KSEA 111953Z VRB06KT 10SM FEW025 FEW250 19/12 A2997 RMK AO2 SLP152 T01940117
KSEA 111853Z 23010KT 10SM FEW020 FEW250 18/11 A2997 RMK AO2 SLP153 T01830111
KSEA 111753Z 24008KT 10SM FEW008 FEW012 17/11 A2997 RMK AO2 SLP154 T01670111 10167 20139 58001
KSEA 111744Z 25007KT 10SM FEW008 SCT012 16/11 A2997 RMK AO2 T01610111
KSEA 111659Z 23007KT 10SM FEW008 BKN012 16/11 A2998 RMK AO2 T01560111
KSEA 111653Z 20009KT 10SM FEW008 SCT012 16/11 A2998 RMK AO2 SLP155 SCT V BKN T01560106
KSEA 111605Z 20007KT 10SM FEW008 SCT017 15/11 A2997 RMK AO2 T01500111
KSEA 111553Z 22007KT 10SM FEW008 BKN015 15/11 A2998 RMK AO2 SLP155 T01500111
KSEA 111453Z 19006KT 10SM OVC012 14/11 A2998 RMK AO2 SLP155 T01390111 50006
KSEA 111353Z 21005KT 10SM BKN012 OVC055 14/11 A2998 RMK AO2 SLP157 T01390111
KSEA 111253Z 20006KT 10SM BKN012 BKN055 14/11 A2996 RMK AO2 SLP151 T01390111
KSEA 111237Z 23004KT 10SM BKN012 14/11 A2996 RMK AO2 T01390111
KSEA 111153Z 25006KT 10SM SCT050 14/12 A2996 RMK AO2 SLP149 T01440117 10200 20144 55001
KSEA 111053Z 29005KT 10SM BKN055 15/12 A2996 RMK AO2 SLP148 T01500122
KSEA 110953Z 27006KT 10SM BKN055 16/12 A2996 RMK AO2 SLP149 T01560122
KSEA 110853Z 28005KT 10SM BKN055 17/13 A2996 RMK AO2 SLP150 T01670128 58003
KSEA 110753Z 28003KT 10SM BKN060 18/13 A2997 RMK AO2 SLP151 T01780133 402780133
KSEA 110653Z 01006KT 10SM BKN060 19/13 A2997 RMK AO2 SLP152 T01940133
KSEA 110553Z 35006KT 10SM BKN065 20/13 A2997 RMK AO2 SLP153 T02000133 10278 20200 58002
KSEA 110453Z 35005KT 10SM SCT070 20/12 A2998 RMK AO2 SLP155 T02000122
KSEA 110353Z 33006KT 10SM FEW050 22/13 A2997 RMK AO2 SLP154 T02170128
KSEA 110253Z 35008KT 10SM FEW050 24/13 A2998 RMK AO2 SLP155 T02390128 56012
KSEA 110153Z 36008KT 10SM FEW050 26/13 A2999 RMK AO2 SLP158 T02560128
KSEA 110053Z 33009KT 10SM FEW050 27/13 A3000 RMK AO2 SLP163 T02670128
KSEA 102353Z VRB06KT 10SM FEW050 27/13 A3001 RMK AO2 SLP167 T02720133 10278 20211 58020
KSEA 102253Z 36007KT 10SM FEW050 27/13 A3003 RMK AO2 SLP173 T02670133
KSEA 102153Z 36011G15KT 10SM FEW050 26/13 A3005 RMK AO2 SLP180 T02610133
KSEA 102053Z 36010KT 10SM FEW050 FEW200 25/13 A3007 RMK AO2 SLP187 T02500133 56016
KSEA 101953Z 01011KT 10SM FEW050 FEW250 24/12 A3008 RMK AO2 SLP192 T02440122